sensor_id;sensor_type;location;lat;lon;timestamp;temperature;humidity
29939;DHT22;16799;50.844;5.304;2022-09-12T00:01:56;14.80;99.90
29939;DHT22;16799;50.844;5.304;2022-09-12T00:04:22;14.80;99.90
29939;DHT22;16799;50.844;5.304;2022-09-12T00:06:47;14.80;99.90
29939;DHT22;16799;50.844;5.304;2022-09-12T00:09:13;14.80;99.90
29939;DHT22;16799;50.844;5.304;2022-09-12T00:11:42;14.80;99.90
29939;DHT22;16799;50.844;5.304;2022-09-12T00:14:10;14.70;99.90
29939;DHT22;16799;50.844;5.304;2022-09-12T00:16:37;14.60;99.90
29939;DHT22;16799;50.844;5.304;2022-09-12T00:19:04;14.60;99.90
29939;DHT22;16799;50.844;5.304;2022-09-12T00:21:32;14.60;99.90
29939;DHT22;16799;50.844;5.304;2022-09-12T00:23:58;14.60;99.90
29939;DHT22;16799;50.844;5.304;2022-09-12T00:26:24;14.50;99.90
29939;DHT22;16799;50.844;5.304;2022-09-12T00:28:50;14.40;99.90
29939;DHT22;16799;50.844;5.304;2022-09-12T00:31:21;14.40;99.90
29939;DHT22;16799;50.844;5.304;2022-09-12T00:33:48;14.40;99.90
29939;DHT22;16799;50.844;5.304;2022-09-12T00:36:19;14.40;99.90
29939;DHT22;16799;50.844;5.304;2022-09-12T00:38:46;14.30;99.90
29939;DHT22;16799;50.844;5.304;2022-09-12T00:41:19;14.30;99.90
29939;DHT22;16799;50.844;5.304;2022-09-12T00:43:50;14.30;99.90
29939;DHT22;16799;50.844;5.304;2022-09-12T00:51:49;14.20;99.90
29939;DHT22;16799;50.844;5.304;2022-09-12T00:54:21;14.20;99.90
29939;DHT22;16799;50.844;5.304;2022-09-12T00:56:50;14.20;99.90
29939;DHT22;16799;50.844;5.304;2022-09-12T00:59:24;14.20;99.90
29939;DHT22;16799;50.844;5.304;2022-09-12T01:01:51;14.20;99.90
29939;DHT22;16799;50.844;5.304;2022-09-12T01:04:19;14.20;99.90
29939;DHT22;16799;50.844;5.304;2022-09-12T01:06:46;14.10;99.90
29939;DHT22;16799;50.844;5.304;2022-09-12T01:09:16;14.10;99.90
29939;DHT22;16799;50.844;5.304;2022-09-12T01:11:43;14.10;99.90
29939;DHT22;16799;50.844;5.304;2022-09-12T01:14:11;14.10;99.90
29939;DHT22;16799;50.844;5.304;2022-09-12T01:16:38;14.10;99.90
29939;DHT22;16799;50.844;5.304;2022-09-12T01:19:24;14.10;99.90
29939;DHT22;16799;50.844;5.304;2022-09-12T01:25:04;14.00;99.90
29939;DHT22;16799;50.844;5.304;2022-09-12T01:35:31;13.80;99.90
29939;DHT22;16799;50.844;5.304;2022-09-12T01:45:43;13.80;99.90
29939;DHT22;16799;50.844;5.304;2022-09-12T01:53:43;13.60;99.90
29939;DHT22;16799;50.844;5.304;2022-09-12T01:56:21;13.60;99.90
29939;DHT22;16799;50.844;5.304;2022-09-12T01:58:58;13.60;99.90
29939;DHT22;16799;50.844;5.304;2022-09-12T02:01:28;13.60;99.90
29939;DHT22;16799;50.844;5.304;2022-09-12T02:04:19;13.60;99.90
29939;DHT22;16799;50.844;5.304;2022-09-12T02:06:50;13.50;99.90
29939;DHT22;16799;50.844;5.304;2022-09-12T02:09:45;13.50;99.90
29939;DHT22;16799;50.844;5.304;2022-09-12T02:12:11;13.60;99.90
29939;DHT22;16799;50.844;5.304;2022-09-12T02:14:44;13.60;99.90
29939;DHT22;16799;50.844;5.304;2022-09-12T02:17:15;13.60;99.90
29939;DHT22;16799;50.844;5.304;2022-09-12T02:19:46;13.50;99.90
29939;DHT22;16799;50.844;5.304;2022-09-12T02:22:17;13.50;99.90
29939;DHT22;16799;50.844;5.304;2022-09-12T02:24:47;13.50;99.90
29939;DHT22;16799;50.844;5.304;2022-09-12T02:27:17;13.50;99.90
29939;DHT22;16799;50.844;5.304;2022-09-12T02:29:45;13.50;99.90
29939;DHT22;16799;50.844;5.304;2022-09-12T02:32:13;13.50;99.90
29939;DHT22;16799;50.844;5.304;2022-09-12T02:37:24;13.50;99.90
29939;DHT22;16799;50.844;5.304;2022-09-12T02:39:57;13.50;99.90
29939;DHT22;16799;50.844;5.304;2022-09-12T02:42:23;13.40;99.90
29939;DHT22;16799;50.844;5.304;2022-09-12T02:44:52;13.40;99.90
29939;DHT22;16799;50.844;5.304;2022-09-12T02:47:27;13.30;99.90
29939;DHT22;16799;50.844;5.304;2022-09-12T02:49:55;13.40;99.90
29939;DHT22;16799;50.844;5.304;2022-09-12T02:52:21;13.50;99.90
29939;DHT22;16799;50.844;5.304;2022-09-12T02:54:48;13.40;99.90
29939;DHT22;16799;50.844;5.304;2022-09-12T02:57:19;13.30;99.90
29939;DHT22;16799;50.844;5.304;2022-09-12T02:59:45;13.30;99.90
29939;DHT22;16799;50.844;5.304;2022-09-12T03:08:13;13.40;99.90
29939;DHT22;16799;50.844;5.304;2022-09-12T03:11:08;13.40;99.90
29939;DHT22;16799;50.844;5.304;2022-09-12T03:16:14;13.50;99.90
29939;DHT22;16799;50.844;5.304;2022-09-12T03:24:32;13.40;99.90
29939;DHT22;16799;50.844;5.304;2022-09-12T03:27:16;13.40;99.90
29939;DHT22;16799;50.844;5.304;2022-09-12T03:29:44;13.40;99.90
29939;DHT22;16799;50.844;5.304;2022-09-12T03:32:11;13.30;99.90
29939;DHT22;16799;50.844;5.304;2022-09-12T03:34:37;13.40;99.90
29939;DHT22;16799;50.844;5.304;2022-09-12T03:37:03;13.30;99.90
29939;DHT22;16799;50.844;5.304;2022-09-12T03:39:29;13.30;99.90
29939;DHT22;16799;50.844;5.304;2022-09-12T03:41:55;13.30;99.90
29939;DHT22;16799;50.844;5.304;2022-09-12T03:44:22;13.20;99.90
29939;DHT22;16799;50.844;5.304;2022-09-12T03:46:48;13.20;99.90
29939;DHT22;16799;50.844;5.304;2022-09-12T03:49:13;13.20;99.90
29939;DHT22;16799;50.844;5.304;2022-09-12T03:51:39;13.20;99.90
29939;DHT22;16799;50.844;5.304;2022-09-12T03:54:05;13.30;99.90
29939;DHT22;16799;50.844;5.304;2022-09-12T03:56:31;13.30;99.90
29939;DHT22;16799;50.844;5.304;2022-09-12T03:58:57;13.30;99.90
29939;DHT22;16799;50.844;5.304;2022-09-12T04:01:23;13.20;99.90
29939;DHT22;16799;50.844;5.304;2022-09-12T04:03:50;13.20;99.90
29939;DHT22;16799;50.844;5.304;2022-09-12T04:06:18;13.10;99.90
29939;DHT22;16799;50.844;5.304;2022-09-12T04:08:48;13.10;99.90
29939;DHT22;16799;50.844;5.304;2022-09-12T04:11:15;13.00;99.90
29939;DHT22;16799;50.844;5.304;2022-09-12T04:13:43;13.00;99.90
29939;DHT22;16799;50.844;5.304;2022-09-12T04:16:10;13.00;99.90
29939;DHT22;16799;50.844;5.304;2022-09-12T04:18:36;13.00;99.90
29939;DHT22;16799;50.844;5.304;2022-09-12T04:21:10;13.00;99.90
29939;DHT22;16799;50.844;5.304;2022-09-12T04:23:36;13.00;99.90
29939;DHT22;16799;50.844;5.304;2022-09-12T04:26:03;13.00;99.90
29939;DHT22;16799;50.844;5.304;2022-09-12T04:28:31;13.00;99.90
29939;DHT22;16799;50.844;5.304;2022-09-12T04:31:01;12.90;99.90
29939;DHT22;16799;50.844;5.304;2022-09-12T04:33:28;12.90;99.90
29939;DHT22;16799;50.844;5.304;2022-09-12T04:35:53;12.90;99.90
29939;DHT22;16799;50.844;5.304;2022-09-12T04:38:19;12.90;99.90
29939;DHT22;16799;50.844;5.304;2022-09-12T04:40:45;12.90;99.90
29939;DHT22;16799;50.844;5.304;2022-09-12T04:43:10;13.00;99.90
29939;DHT22;16799;50.844;5.304;2022-09-12T04:45:36;12.90;99.90
29939;DHT22;16799;50.844;5.304;2022-09-12T04:48:02;12.80;99.90
29939;DHT22;16799;50.844;5.304;2022-09-12T04:50:27;12.80;99.90
29939;DHT22;16799;50.844;5.304;2022-09-12T04:52:54;12.70;99.90
29939;DHT22;16799;50.844;5.304;2022-09-12T04:55:20;12.70;99.90
29939;DHT22;16799;50.844;5.304;2022-09-12T04:57:46;12.70;99.90
29939;DHT22;16799;50.844;5.304;2022-09-12T05:00:12;12.70;99.90
29939;DHT22;16799;50.844;5.304;2022-09-12T05:02:40;12.70;99.90
29939;DHT22;16799;50.844;5.304;2022-09-12T05:05:07;12.70;99.90
29939;DHT22;16799;50.844;5.304;2022-09-12T05:07:33;12.70;99.90
29939;DHT22;16799;50.844;5.304;2022-09-12T05:09:59;12.60;99.90
29939;DHT22;16799;50.844;5.304;2022-09-12T05:12:25;12.70;99.90
29939;DHT22;16799;50.844;5.304;2022-09-12T05:14:50;12.60;99.90
29939;DHT22;16799;50.844;5.304;2022-09-12T05:17:16;12.60;99.90
29939;DHT22;16799;50.844;5.304;2022-09-12T05:19:42;12.60;99.90
29939;DHT22;16799;50.844;5.304;2022-09-12T05:22:07;12.60;99.90
29939;DHT22;16799;50.844;5.304;2022-09-12T05:24:34;12.60;99.90
29939;DHT22;16799;50.844;5.304;2022-09-12T05:27:00;12.60;99.90
29939;DHT22;16799;50.844;5.304;2022-09-12T05:29:27;12.50;99.90
29939;DHT22;16799;50.844;5.304;2022-09-12T05:31:53;12.50;99.90
29939;DHT22;16799;50.844;5.304;2022-09-12T05:34:19;12.60;99.90
29939;DHT22;16799;50.844;5.304;2022-09-12T05:36:45;12.60;99.90
29939;DHT22;16799;50.844;5.304;2022-09-12T05:39:11;12.60;99.90
29939;DHT22;16799;50.844;5.304;2022-09-12T05:41:37;12.80;99.90
29939;DHT22;16799;50.844;5.304;2022-09-12T05:44:05;12.70;99.90
29939;DHT22;16799;50.844;5.304;2022-09-12T05:46:38;12.70;99.90
29939;DHT22;16799;50.844;5.304;2022-09-12T05:49:09;12.80;99.90
29939;DHT22;16799;50.844;5.304;2022-09-12T05:51:41;12.90;99.90
29939;DHT22;16799;50.844;5.304;2022-09-12T05:54:09;12.90;99.90
29939;DHT22;16799;50.844;5.304;2022-09-12T05:56:40;13.00;99.90
29939;DHT22;16799;50.844;5.304;2022-09-12T05:59:11;13.10;99.90
29939;DHT22;16799;50.844;5.304;2022-09-12T06:01:37;13.20;99.90
29939;DHT22;16799;50.844;5.304;2022-09-12T06:04:04;13.30;99.90
29939;DHT22;16799;50.844;5.304;2022-09-12T06:06:34;13.40;99.90
29939;DHT22;16799;50.844;5.304;2022-09-12T06:09:01;13.50;99.90
29939;DHT22;16799;50.844;5.304;2022-09-12T06:11:31;13.60;99.90
29939;DHT22;16799;50.844;5.304;2022-09-12T06:13:58;13.80;99.90
29939;DHT22;16799;50.844;5.304;2022-09-12T06:16:27;13.80;99.90
29939;DHT22;16799;50.844;5.304;2022-09-12T06:18:55;13.90;99.90
29939;DHT22;16799;50.844;5.304;2022-09-12T06:21:21;14.10;99.90
29939;DHT22;16799;50.844;5.304;2022-09-12T06:23:49;14.30;99.90
29939;DHT22;16799;50.844;5.304;2022-09-12T06:26:16;14.50;99.90
29939;DHT22;16799;50.844;5.304;2022-09-12T06:28:43;14.60;99.90
29939;DHT22;16799;50.844;5.304;2022-09-12T06:31:11;14.60;99.90
29939;DHT22;16799;50.844;5.304;2022-09-12T06:33:42;14.80;99.90
29939;DHT22;16799;50.844;5.304;2022-09-12T06:36:10;14.80;99.90
29939;DHT22;16799;50.844;5.304;2022-09-12T06:38:36;14.80;99.90
29939;DHT22;16799;50.844;5.304;2022-09-12T06:41:07;14.70;99.90
29939;DHT22;16799;50.844;5.304;2022-09-12T06:43:34;14.80;99.90
29939;DHT22;16799;50.844;5.304;2022-09-12T06:46:00;14.80;99.90
29939;DHT22;16799;50.844;5.304;2022-09-12T06:48:26;14.80;99.90
29939;DHT22;16799;50.844;5.304;2022-09-12T06:51:00;14.90;99.90
29939;DHT22;16799;50.844;5.304;2022-09-12T06:53:27;14.90;99.90
29939;DHT22;16799;50.844;5.304;2022-09-12T06:56:02;15.00;99.90
29939;DHT22;16799;50.844;5.304;2022-09-12T06:58:28;15.10;99.90
29939;DHT22;16799;50.844;5.304;2022-09-12T07:01:02;15.10;99.90
29939;DHT22;16799;50.844;5.304;2022-09-12T07:03:28;15.40;99.90
29939;DHT22;16799;50.844;5.304;2022-09-12T07:05:54;15.50;99.90
29939;DHT22;16799;50.844;5.304;2022-09-12T07:08:20;15.70;99.90
29939;DHT22;16799;50.844;5.304;2022-09-12T07:10:45;15.90;99.90
29939;DHT22;16799;50.844;5.304;2022-09-12T07:13:11;16.10;99.90
29939;DHT22;16799;50.844;5.304;2022-09-12T07:15:39;16.30;99.90
29939;DHT22;16799;50.844;5.304;2022-09-12T07:18:05;16.60;99.90
29939;DHT22;16799;50.844;5.304;2022-09-12T07:20:30;16.60;99.90
29939;DHT22;16799;50.844;5.304;2022-09-12T07:23:01;16.60;99.90
29939;DHT22;16799;50.844;5.304;2022-09-12T07:25:27;16.70;99.90
29939;DHT22;16799;50.844;5.304;2022-09-12T07:27:53;17.00;99.90
29939;DHT22;16799;50.844;5.304;2022-09-12T07:30:20;16.90;99.90
29939;DHT22;16799;50.844;5.304;2022-09-12T07:32:46;17.10;99.90
29939;DHT22;16799;50.844;5.304;2022-09-12T07:35:12;17.20;99.90
29939;DHT22;16799;50.844;5.304;2022-09-12T07:37:37;17.40;99.90
29939;DHT22;16799;50.844;5.304;2022-09-12T07:40:03;17.70;99.90
29939;DHT22;16799;50.844;5.304;2022-09-12T07:42:29;17.80;99.90
29939;DHT22;16799;50.844;5.304;2022-09-12T07:44:55;17.90;99.90
29939;DHT22;16799;50.844;5.304;2022-09-12T07:47:21;18.10;99.90
29939;DHT22;16799;50.844;5.304;2022-09-12T07:49:46;18.30;99.90
29939;DHT22;16799;50.844;5.304;2022-09-12T07:52:12;18.40;99.90
29939;DHT22;16799;50.844;5.304;2022-09-12T07:54:38;18.70;99.90
29939;DHT22;16799;50.844;5.304;2022-09-12T07:57:04;18.80;99.90
29939;DHT22;16799;50.844;5.304;2022-09-12T07:59:29;19.00;99.90
29939;DHT22;16799;50.844;5.304;2022-09-12T08:01:55;19.20;99.90
29939;DHT22;16799;50.844;5.304;2022-09-12T08:11:07;19.80;99.90
29939;DHT22;16799;50.844;5.304;2022-09-12T08:13:34;19.80;99.90
29939;DHT22;16799;50.844;5.304;2022-09-12T08:16:02;19.80;99.90
29939;DHT22;16799;50.844;5.304;2022-09-12T08:18:29;20.00;99.90
29939;DHT22;16799;50.844;5.304;2022-09-12T08:20:58;20.20;99.90
29939;DHT22;16799;50.844;5.304;2022-09-12T08:23:24;20.40;99.90
29939;DHT22;16799;50.844;5.304;2022-09-12T08:25:51;20.50;99.90
29939;DHT22;16799;50.844;5.304;2022-09-12T08:28:16;20.50;99.90
29939;DHT22;16799;50.844;5.304;2022-09-12T08:30:42;20.60;99.90
29939;DHT22;16799;50.844;5.304;2022-09-12T08:33:08;20.70;99.90
29939;DHT22;16799;50.844;5.304;2022-09-12T08:35:33;21.00;99.90
29939;DHT22;16799;50.844;5.304;2022-09-12T08:37:59;21.10;99.90
29939;DHT22;16799;50.844;5.304;2022-09-12T08:40:24;21.20;99.90
29939;DHT22;16799;50.844;5.304;2022-09-12T08:43:03;21.30;99.90
29939;DHT22;16799;50.844;5.304;2022-09-12T08:45:37;21.40;99.90
29939;DHT22;16799;50.844;5.304;2022-09-12T08:48:06;21.70;99.90
29939;DHT22;16799;50.844;5.304;2022-09-12T08:50:34;21.80;99.90
29939;DHT22;16799;50.844;5.304;2022-09-12T08:53:17;22.00;99.90
29939;DHT22;16799;50.844;5.304;2022-09-12T08:55:46;22.10;99.90
29939;DHT22;16799;50.844;5.304;2022-09-12T08:58:17;22.20;99.90
29939;DHT22;16799;50.844;5.304;2022-09-12T09:03:38;22.40;99.90
29939;DHT22;16799;50.844;5.304;2022-09-12T09:17:33;22.60;99.00
29939;DHT22;16799;50.844;5.304;2022-09-12T09:20:11;22.40;98.60
29939;DHT22;16799;50.844;5.304;2022-09-12T09:23:30;22.20;99.00
29939;DHT22;16799;50.844;5.304;2022-09-12T09:28:33;22.20;98.40
29939;DHT22;16799;50.844;5.304;2022-09-12T09:31:01;22.10;97.80
29939;DHT22;16799;50.844;5.304;2022-09-12T09:33:32;22.30;98.00
29939;DHT22;16799;50.844;5.304;2022-09-12T09:36:19;22.60;96.80
29939;DHT22;16799;50.844;5.304;2022-09-12T09:39:03;22.60;96.10
29939;DHT22;16799;50.844;5.304;2022-09-12T09:41:41;22.50;95.70
29939;DHT22;16799;50.844;5.304;2022-09-12T09:44:09;22.50;95.60
29939;DHT22;16799;50.844;5.304;2022-09-12T09:46:35;22.70;95.90
29939;DHT22;16799;50.844;5.304;2022-09-12T09:49:01;23.20;94.80
29939;DHT22;16799;50.844;5.304;2022-09-12T09:51:33;23.20;93.60
29939;DHT22;16799;50.844;5.304;2022-09-12T09:56:45;23.60;93.50
29939;DHT22;16799;50.844;5.304;2022-09-12T09:59:16;23.70;92.00
29939;DHT22;16799;50.844;5.304;2022-09-12T10:04:29;23.60;92.60
29939;DHT22;16799;50.844;5.304;2022-09-12T10:07:00;24.00;92.50
29939;DHT22;16799;50.844;5.304;2022-09-12T10:09:34;24.40;91.00
29939;DHT22;16799;50.844;5.304;2022-09-12T10:12:19;24.50;90.40
29939;DHT22;16799;50.844;5.304;2022-09-12T10:14:59;24.30;90.90
29939;DHT22;16799;50.844;5.304;2022-09-12T10:17:28;24.60;90.70
29939;DHT22;16799;50.844;5.304;2022-09-12T10:19:56;25.10;87.50
29939;DHT22;16799;50.844;5.304;2022-09-12T10:22:24;25.70;87.00
29939;DHT22;16799;50.844;5.304;2022-09-12T10:24:55;26.30;83.90
29939;DHT22;16799;50.844;5.304;2022-09-12T10:27:32;26.90;81.10
29939;DHT22;16799;50.844;5.304;2022-09-12T10:30:16;27.50;78.20
29939;DHT22;16799;50.844;5.304;2022-09-12T10:32:48;28.50;75.90
29939;DHT22;16799;50.844;5.304;2022-09-12T10:35:23;29.40;73.10
29939;DHT22;16799;50.844;5.304;2022-09-12T10:40:26;30.40;67.00
29939;DHT22;16799;50.844;5.304;2022-09-12T10:42:56;30.90;66.90
29939;DHT22;16799;50.844;5.304;2022-09-12T10:45:35;31.30;64.20
29939;DHT22;16799;50.844;5.304;2022-09-12T10:48:30;31.90;63.00
29939;DHT22;16799;50.844;5.304;2022-09-12T10:50:57;32.90;61.80
29939;DHT22;16799;50.844;5.304;2022-09-12T10:53:31;31.80;62.10
29939;DHT22;16799;50.844;5.304;2022-09-12T10:59:03;31.90;60.90
29939;DHT22;16799;50.844;5.304;2022-09-12T11:09:17;31.80;59.10
29939;DHT22;16799;50.844;5.304;2022-09-12T11:25:34;34.70;54.70
29939;DHT22;16799;50.844;5.304;2022-09-12T11:33:43;35.30;54.20
29939;DHT22;16799;50.844;5.304;2022-09-12T11:39:00;33.70;55.20
29939;DHT22;16799;50.844;5.304;2022-09-12T11:41:35;33.90;54.70
29939;DHT22;16799;50.844;5.304;2022-09-12T11:46:43;33.60;54.90
29939;DHT22;16799;50.844;5.304;2022-09-12T11:55:01;35.80;53.50
29939;DHT22;16799;50.844;5.304;2022-09-12T12:00:06;36.40;49.70
29939;DHT22;16799;50.844;5.304;2022-09-12T12:05:25;36.40;49.50
29939;DHT22;16799;50.844;5.304;2022-09-12T12:07:55;36.30;49.90
29939;DHT22;16799;50.844;5.304;2022-09-12T12:12:53;37.80;49.00
29939;DHT22;16799;50.844;5.304;2022-09-12T12:15:20;38.80;47.60
29939;DHT22;16799;50.844;5.304;2022-09-12T12:18:03;38.00;46.70
29939;DHT22;16799;50.844;5.304;2022-09-12T12:20:29;36.60;48.40
29939;DHT22;16799;50.844;5.304;2022-09-12T12:22:55;34.90;50.60
29939;DHT22;16799;50.844;5.304;2022-09-12T12:25:39;33.70;52.70
29939;DHT22;16799;50.844;5.304;2022-09-12T12:28:05;34.20;51.70
29939;DHT22;16799;50.844;5.304;2022-09-12T12:36:00;35.50;48.50
29939;DHT22;16799;50.844;5.304;2022-09-12T12:46:13;36.80;47.00
29939;DHT22;16799;50.844;5.304;2022-09-12T12:54:27;36.60;46.40
29939;DHT22;16799;50.844;5.304;2022-09-12T12:59:46;36.90;46.70
29939;DHT22;16799;50.844;5.304;2022-09-12T13:02:23;37.60;46.30
29939;DHT22;16799;50.844;5.304;2022-09-12T13:04:50;38.70;45.30
29939;DHT22;16799;50.844;5.304;2022-09-12T13:07:29;39.80;42.00
29939;DHT22;16799;50.844;5.304;2022-09-12T13:09:56;40.70;42.60
29939;DHT22;16799;50.844;5.304;2022-09-12T13:12:32;39.50;42.10
29939;DHT22;16799;50.844;5.304;2022-09-12T13:15:01;37.00;43.40
29939;DHT22;16799;50.844;5.304;2022-09-12T13:17:43;34.90;46.30
29939;DHT22;16799;50.844;5.304;2022-09-12T13:22:39;35.20;46.70
29939;DHT22;16799;50.844;5.304;2022-09-12T13:25:37;37.00;45.00
29939;DHT22;16799;50.844;5.304;2022-09-12T13:30:58;36.30;44.70
29939;DHT22;16799;50.844;5.304;2022-09-12T13:33:36;35.60;46.10
29939;DHT22;16799;50.844;5.304;2022-09-12T13:44:09;38.70;42.40
29939;DHT22;16799;50.844;5.304;2022-09-12T13:46:37;36.50;43.80
29939;DHT22;16799;50.844;5.304;2022-09-12T13:49:20;35.80;44.50
29939;DHT22;16799;50.844;5.304;2022-09-12T13:51:58;36.10;44.00
29939;DHT22;16799;50.844;5.304;2022-09-12T13:54:25;37.00;44.10
29939;DHT22;16799;50.844;5.304;2022-09-12T13:56:52;37.50;42.90
29939;DHT22;16799;50.844;5.304;2022-09-12T13:59:17;37.60;43.50
29939;DHT22;16799;50.844;5.304;2022-09-12T14:01:46;36.90;44.00
29939;DHT22;16799;50.844;5.304;2022-09-12T14:04:17;37.00;42.60
29939;DHT22;16799;50.844;5.304;2022-09-12T14:07:12;38.00;42.30
29939;DHT22;16799;50.844;5.304;2022-09-12T14:09:45;38.50;42.00
29939;DHT22;16799;50.844;5.304;2022-09-12T14:14:56;40.40;40.50
29939;DHT22;16799;50.844;5.304;2022-09-12T14:20:02;40.30;39.00
29939;DHT22;16799;50.844;5.304;2022-09-12T14:22:30;40.00;39.20
29939;DHT22;16799;50.844;5.304;2022-09-12T14:24:57;39.80;39.80
29939;DHT22;16799;50.844;5.304;2022-09-12T14:27:26;39.90;40.30
29939;DHT22;16799;50.844;5.304;2022-09-12T14:30:03;38.20;41.70
29939;DHT22;16799;50.844;5.304;2022-09-12T14:32:32;38.10;40.80
29939;DHT22;16799;50.844;5.304;2022-09-12T14:37:37;39.00;40.30
29939;DHT22;16799;50.844;5.304;2022-09-12T14:40:15;38.40;41.00
29939;DHT22;16799;50.844;5.304;2022-09-12T14:42:41;38.00;41.50
29939;DHT22;16799;50.844;5.304;2022-09-12T14:45:26;37.20;41.80
29939;DHT22;16799;50.844;5.304;2022-09-12T14:47:53;36.20;42.80
29939;DHT22;16799;50.844;5.304;2022-09-12T14:50:25;36.50;43.30
29939;DHT22;16799;50.844;5.304;2022-09-12T14:55:54;39.20;39.80
29939;DHT22;16799;50.844;5.304;2022-09-12T14:58:26;38.90;40.20
29939;DHT22;16799;50.844;5.304;2022-09-12T15:05:56;33.60;46.20
29939;DHT22;16799;50.844;5.304;2022-09-12T15:08:22;32.40;46.90
29939;DHT22;16799;50.844;5.304;2022-09-12T15:10:49;32.20;48.50
29939;DHT22;16799;50.844;5.304;2022-09-12T15:13:18;31.60;47.80
29939;DHT22;16799;50.844;5.304;2022-09-12T15:15:52;31.00;49.20
29939;DHT22;16799;50.844;5.304;2022-09-12T15:18:19;30.70;49.30
29939;DHT22;16799;50.844;5.304;2022-09-12T15:20:46;31.00;49.10
29939;DHT22;16799;50.844;5.304;2022-09-12T15:25:54;30.60;49.90
29939;DHT22;16799;50.844;5.304;2022-09-12T15:28:22;30.60;50.30
29939;DHT22;16799;50.844;5.304;2022-09-12T15:30:49;30.50;49.70
29939;DHT22;16799;50.844;5.304;2022-09-12T15:33:19;30.10;50.80
29939;DHT22;16799;50.844;5.304;2022-09-12T15:35:47;29.70;50.80
29939;DHT22;16799;50.844;5.304;2022-09-12T15:38:13;29.30;51.60
29939;DHT22;16799;50.844;5.304;2022-09-12T15:40:39;29.00;52.50
29939;DHT22;16799;50.844;5.304;2022-09-12T15:43:05;29.00;53.30
29939;DHT22;16799;50.844;5.304;2022-09-12T15:45:33;29.10;52.50
29939;DHT22;16799;50.844;5.304;2022-09-12T15:47:59;28.80;52.40
29939;DHT22;16799;50.844;5.304;2022-09-12T15:50:26;28.70;53.50
29939;DHT22;16799;50.844;5.304;2022-09-12T15:52:53;29.00;53.80
29939;DHT22;16799;50.844;5.304;2022-09-12T15:55:37;29.10;52.80
29939;DHT22;16799;50.844;5.304;2022-09-12T15:58:02;29.10;53.40
29939;DHT22;16799;50.844;5.304;2022-09-12T16:00:28;29.20;52.80
29939;DHT22;16799;50.844;5.304;2022-09-12T16:02:54;29.10;53.50
29939;DHT22;16799;50.844;5.304;2022-09-12T16:05:24;29.10;53.70
29939;DHT22;16799;50.844;5.304;2022-09-12T16:07:51;29.20;53.10
29939;DHT22;16799;50.844;5.304;2022-09-12T16:10:21;29.20;52.60
29939;DHT22;16799;50.844;5.304;2022-09-12T16:12:47;29.10;51.30
29939;DHT22;16799;50.844;5.304;2022-09-12T16:15:15;29.10;52.20
29939;DHT22;16799;50.844;5.304;2022-09-12T16:17:41;29.00;52.20
29939;DHT22;16799;50.844;5.304;2022-09-12T16:20:07;29.10;52.50
29939;DHT22;16799;50.844;5.304;2022-09-12T16:22:33;29.10;53.70
29939;DHT22;16799;50.844;5.304;2022-09-12T16:24:59;29.10;52.40
29939;DHT22;16799;50.844;5.304;2022-09-12T16:27:24;29.20;52.30
29939;DHT22;16799;50.844;5.304;2022-09-12T16:29:50;29.20;53.60
29939;DHT22;16799;50.844;5.304;2022-09-12T16:32:16;29.20;53.60
29939;DHT22;16799;50.844;5.304;2022-09-12T16:34:42;29.20;52.70
29939;DHT22;16799;50.844;5.304;2022-09-12T16:37:07;29.20;53.60
29939;DHT22;16799;50.844;5.304;2022-09-12T16:39:34;29.10;55.00
29939;DHT22;16799;50.844;5.304;2022-09-12T16:41:59;29.10;53.50
29939;DHT22;16799;50.844;5.304;2022-09-12T16:44:25;29.10;54.90
29939;DHT22;16799;50.844;5.304;2022-09-12T16:46:50;29.20;55.40
29939;DHT22;16799;50.844;5.304;2022-09-12T16:49:16;29.10;54.50
29939;DHT22;16799;50.844;5.304;2022-09-12T16:51:42;29.00;55.40
29939;DHT22;16799;50.844;5.304;2022-09-12T16:54:14;28.80;57.30
29939;DHT22;16799;50.844;5.304;2022-09-12T16:56:40;28.80;57.90
29939;DHT22;16799;50.844;5.304;2022-09-12T16:59:06;28.70;57.80
29939;DHT22;16799;50.844;5.304;2022-09-12T17:01:34;28.70;58.80
29939;DHT22;16799;50.844;5.304;2022-09-12T17:04:00;28.60;59.60
29939;DHT22;16799;50.844;5.304;2022-09-12T17:06:26;28.60;60.20
29939;DHT22;16799;50.844;5.304;2022-09-12T17:08:53;28.50;59.60
29939;DHT22;16799;50.844;5.304;2022-09-12T17:11:22;28.40;59.20
29939;DHT22;16799;50.844;5.304;2022-09-12T17:13:49;28.30;59.30
29939;DHT22;16799;50.844;5.304;2022-09-12T17:16:15;28.30;60.20
29939;DHT22;16799;50.844;5.304;2022-09-12T17:18:41;28.30;60.90
29939;DHT22;16799;50.844;5.304;2022-09-12T17:21:08;28.30;61.70
29939;DHT22;16799;50.844;5.304;2022-09-12T17:23:34;28.30;63.00
29939;DHT22;16799;50.844;5.304;2022-09-12T17:26:00;28.30;63.20
29939;DHT22;16799;50.844;5.304;2022-09-12T17:28:25;28.40;63.00
29939;DHT22;16799;50.844;5.304;2022-09-12T17:31:03;28.70;62.80
29939;DHT22;16799;50.844;5.304;2022-09-12T17:33:29;28.90;61.60
29939;DHT22;16799;50.844;5.304;2022-09-12T17:36:00;28.60;62.70
29939;DHT22;16799;50.844;5.304;2022-09-12T17:38:26;28.30;63.50
29939;DHT22;16799;50.844;5.304;2022-09-12T17:40:52;28.10;64.10
29939;DHT22;16799;50.844;5.304;2022-09-12T17:43:18;27.70;65.90
29939;DHT22;16799;50.844;5.304;2022-09-12T17:45:44;27.50;67.20
29939;DHT22;16799;50.844;5.304;2022-09-12T17:48:10;27.30;68.30
29939;DHT22;16799;50.844;5.304;2022-09-12T17:50:37;26.90;69.80
29939;DHT22;16799;50.844;5.304;2022-09-12T17:53:03;26.90;69.80
29939;DHT22;16799;50.844;5.304;2022-09-12T17:55:33;26.70;72.40
29939;DHT22;16799;50.844;5.304;2022-09-12T17:57:59;26.40;74.50
29939;DHT22;16799;50.844;5.304;2022-09-12T18:00:26;26.20;76.70
29939;DHT22;16799;50.844;5.304;2022-09-12T18:03:12;26.10;77.90
29939;DHT22;16799;50.844;5.304;2022-09-12T18:05:51;25.70;79.40
29939;DHT22;16799;50.844;5.304;2022-09-12T18:08:17;25.50;83.00
29939;DHT22;16799;50.844;5.304;2022-09-12T18:10:43;25.40;84.30
29939;DHT22;16799;50.844;5.304;2022-09-12T18:13:09;25.30;85.30
29939;DHT22;16799;50.844;5.304;2022-09-12T18:15:35;25.00;88.60
29939;DHT22;16799;50.844;5.304;2022-09-12T18:18:01;24.80;89.70
29939;DHT22;16799;50.844;5.304;2022-09-12T18:20:27;24.60;90.50
29939;DHT22;16799;50.844;5.304;2022-09-12T18:22:53;24.50;90.90
29939;DHT22;16799;50.844;5.304;2022-09-12T18:25:19;24.40;91.80
29939;DHT22;16799;50.844;5.304;2022-09-12T18:27:44;24.30;92.60
29939;DHT22;16799;50.844;5.304;2022-09-12T18:30:11;24.20;93.10
29939;DHT22;16799;50.844;5.304;2022-09-12T18:32:38;24.10;93.00
29939;DHT22;16799;50.844;5.304;2022-09-12T18:35:05;24.00;93.70
29939;DHT22;16799;50.844;5.304;2022-09-12T18:37:31;23.80;94.50
29939;DHT22;16799;50.844;5.304;2022-09-12T18:39:57;23.80;95.00
29939;DHT22;16799;50.844;5.304;2022-09-12T18:42:25;23.80;95.40
29939;DHT22;16799;50.844;5.304;2022-09-12T18:44:51;23.70;95.70